sensor_id;sensor_type;location;lat;lon;timestamp;temperature;humidity
484;DHT22;228;48.922;12.198;2024-01-11T05:17:06;-4.50;90.30
484;DHT22;228;48.922;12.198;2024-01-11T05:19:33;-4.20;89.30
484;DHT22;228;48.922;12.198;2024-01-11T05:21:59;-4.30;89.00
484;DHT22;228;48.922;12.198;2024-01-11T05:24:25;-4.30;89.10
484;DHT22;228;48.922;12.198;2024-01-11T05:26:52;-4.30;88.50
484;DHT22;228;48.922;12.198;2024-01-11T05:29:18;-4.30;88.90
484;DHT22;228;48.922;12.198;2024-01-11T05:31:44;-4.30;89.10
484;DHT22;228;48.922;12.198;2024-01-11T05:34:10;-4.30;88.70
484;DHT22;228;48.922;12.198;2024-01-11T05:36:38;-4.20;89.60
484;DHT22;228;48.922;12.198;2024-01-11T05:39:04;-4.40;90.00
484;DHT22;228;48.922;12.198;2024-01-11T05:41:30;-4.60;90.20
484;DHT22;228;48.922;12.198;2024-01-11T05:43:57;-4.70;90.50
484;DHT22;228;48.922;12.198;2024-01-11T05:46:24;-4.70;90.40
484;DHT22;228;48.922;12.198;2024-01-11T05:48:50;-4.60;90.30
484;DHT22;228;48.922;12.198;2024-01-11T05:51:16;-4.80;90.60
484;DHT22;228;48.922;12.198;2024-01-11T05:53:42;-5.00;91.00
484;DHT22;228;48.922;12.198;2024-01-11T05:56:08;-4.90;91.10
484;DHT22;228;48.922;12.198;2024-01-11T05:58:35;-4.80;91.20
484;DHT22;228;48.922;12.198;2024-01-11T06:01:05;-4.60;90.80
484;DHT22;228;48.922;12.198;2024-01-11T06:03:31;-4.30;90.40
484;DHT22;228;48.922;12.198;2024-01-11T06:06:00;-4.00;89.00
484;DHT22;228;48.922;12.198;2024-01-11T06:08:29;-3.70;88.20
484;DHT22;228;48.922;12.198;2024-01-11T06:10:57;-4.20;88.60
484;DHT22;228;48.922;12.198;2024-01-11T06:13:24;-4.50;90.20
484;DHT22;228;48.922;12.198;2024-01-11T06:15:52;-4.20;90.10
484;DHT22;228;48.922;12.198;2024-01-11T06:18:18;-4.00;89.90
484;DHT22;228;48.922;12.198;2024-01-11T06:20:44;-3.80;88.20
484;DHT22;228;48.922;12.198;2024-01-11T06:23:10;-3.50;87.60
484;DHT22;228;48.922;12.198;2024-01-11T06:25:37;-3.30;85.50
484;DHT22;228;48.922;12.198;2024-01-11T06:28:04;-3.30;82.90
484;DHT22;228;48.922;12.198;2024-01-11T06:30:32;-3.40;84.00
484;DHT22;228;48.922;12.198;2024-01-11T06:32:58;-3.50;82.80
484;DHT22;228;48.922;12.198;2024-01-11T06:35:24;-3.40;82.80
484;DHT22;228;48.922;12.198;2024-01-11T06:37:50;-3.50;82.00
484;DHT22;228;48.922;12.198;2024-01-11T06:42:46;-4.30;83.50
484;DHT22;228;48.922;12.198;2024-01-11T06:45:13;-4.20;85.90
484;DHT22;228;48.922;12.198;2024-01-11T06:47:39;-3.80;84.50
484;DHT22;228;48.922;12.198;2024-01-11T06:50:06;-3.80;83.80
484;DHT22;228;48.922;12.198;2024-01-11T06:52:35;-3.80;85.00
484;DHT22;228;48.922;12.198;2024-01-11T06:55:02;-3.60;84.60
484;DHT22;228;48.922;12.198;2024-01-11T06:57:28;-3.40;84.00
484;DHT22;228;48.922;12.198;2024-01-11T06:59:54;-3.30;83.30
484;DHT22;228;48.922;12.198;2024-01-11T07:02:20;-3.30;82.60
484;DHT22;228;48.922;12.198;2024-01-11T07:04:47;-3.50;82.80
484;DHT22;228;48.922;12.198;2024-01-11T07:07:13;-4.60;87.80
484;DHT22;228;48.922;12.198;2024-01-11T07:09:39;-4.80;90.50
484;DHT22;228;48.922;12.198;2024-01-11T07:12:08;-5.20;91.40
484;DHT22;228;48.922;12.198;2024-01-11T07:14:37;-4.90;91.90
484;DHT22;228;48.922;12.198;2024-01-11T07:17:03;-4.60;90.90
484;DHT22;228;48.922;12.198;2024-01-11T07:19:29;-4.50;90.70
484;DHT22;228;48.922;12.198;2024-01-11T07:21:59;-4.30;90.00
484;DHT22;228;48.922;12.198;2024-01-11T07:24:28;-4.40;90.10
484;DHT22;228;48.922;12.198;2024-01-11T07:27:05;-4.40;90.50
484;DHT22;228;48.922;12.198;2024-01-11T07:29:33;-4.30;90.30
484;DHT22;228;48.922;12.198;2024-01-11T07:32:01;-4.30;90.40
484;DHT22;228;48.922;12.198;2024-01-11T07:34:29;-4.30;90.00
484;DHT22;228;48.922;12.198;2024-01-11T07:36:56;-4.00;89.80
484;DHT22;228;48.922;12.198;2024-01-11T07:39:23;-4.00;88.40
484;DHT22;228;48.922;12.198;2024-01-11T07:41:50;-4.00;88.90
484;DHT22;228;48.922;12.198;2024-01-11T07:44:19;-3.90;88.50
484;DHT22;228;48.922;12.198;2024-01-11T07:46:46;-4.00;89.00
484;DHT22;228;48.922;12.198;2024-01-11T07:49:12;-3.80;89.30
484;DHT22;228;48.922;12.198;2024-01-11T07:51:38;-3.40;87.70
484;DHT22;228;48.922;12.198;2024-01-11T07:54:04;-3.10;85.70
484;DHT22;228;48.922;12.198;2024-01-11T07:56:30;-3.20;84.80
484;DHT22;228;48.922;12.198;2024-01-11T07:58:57;-2.90;85.10
484;DHT22;228;48.922;12.198;2024-01-11T08:01:23;-2.80;84.30
484;DHT22;228;48.922;12.198;2024-01-11T08:03:50;-2.50;82.70
484;DHT22;228;48.922;12.198;2024-01-11T08:06:18;-2.70;82.60
484;DHT22;228;48.922;12.198;2024-01-11T08:08:44;-2.40;82.10
484;DHT22;228;48.922;12.198;2024-01-11T08:11:13;-2.20;81.60
484;DHT22;228;48.922;12.198;2024-01-11T08:13:39;-1.80;80.80
484;DHT22;228;48.922;12.198;2024-01-11T08:16:06;-1.80;80.00
484;DHT22;228;48.922;12.198;2024-01-11T08:18:35;-1.80;79.10
484;DHT22;228;48.922;12.198;2024-01-11T08:21:01;-1.80;79.80
484;DHT22;228;48.922;12.198;2024-01-11T08:23:28;-1.80;79.10
484;DHT22;228;48.922;12.198;2024-01-11T08:25:55;-2.00;80.60
484;DHT22;228;48.922;12.198;2024-01-11T08:28:21;-1.70;80.90
484;DHT22;228;48.922;12.198;2024-01-11T08:30:49;-1.90;81.40
484;DHT22;228;48.922;12.198;2024-01-11T08:33:15;-1.90;80.70
484;DHT22;228;48.922;12.198;2024-01-11T08:35:42;-1.70;80.40
484;DHT22;228;48.922;12.198;2024-01-11T08:38:08;-1.50;79.30
484;DHT22;228;48.922;12.198;2024-01-11T08:40:35;-1.20;79.10
484;DHT22;228;48.922;12.198;2024-01-11T08:43:02;-1.20;77.80
484;DHT22;228;48.922;12.198;2024-01-11T08:45:29;-1.90;79.10
484;DHT22;228;48.922;12.198;2024-01-11T08:47:56;-2.10;80.20
484;DHT22;228;48.922;12.198;2024-01-11T08:50:23;-2.60;82.00
484;DHT22;228;48.922;12.198;2024-01-11T08:52:50;-2.70;83.30
484;DHT22;228;48.922;12.198;2024-01-11T08:55:32;-2.60;83.80
484;DHT22;228;48.922;12.198;2024-01-11T09:03:42;-2.40;86.80
484;DHT22;228;48.922;12.198;2024-01-11T09:06:08;-1.80;83.70
484;DHT22;228;48.922;12.198;2024-01-11T09:08:35;-1.40;83.40
484;DHT22;228;48.922;12.198;2024-01-11T09:11:01;-0.90;81.30
484;DHT22;228;48.922;12.198;2024-01-11T09:13:29;-0.40;79.60
484;DHT22;228;48.922;12.198;2024-01-11T09:15:58;-0.30;77.20
484;DHT22;228;48.922;12.198;2024-01-11T09:18:29;0.00;76.90
484;DHT22;228;48.922;12.198;2024-01-11T09:20:57;0.20;76.20
484;DHT22;228;48.922;12.198;2024-01-11T09:23:24;0.30;74.30
484;DHT22;228;48.922;12.198;2024-01-11T09:25:51;0.20;73.70
484;DHT22;228;48.922;12.198;2024-01-11T09:28:40;0.10;74.30
484;DHT22;228;48.922;12.198;2024-01-11T09:31:06;0.00;75.10
484;DHT22;228;48.922;12.198;2024-01-11T09:33:33;-0.70;75.40
484;DHT22;228;48.922;12.198;2024-01-11T09:36:00;-0.80;77.70
484;DHT22;228;48.922;12.198;2024-01-11T09:38:31;-0.30;76.90
484;DHT22;228;48.922;12.198;2024-01-11T09:41:07;0.30;75.20
484;DHT22;228;48.922;12.198;2024-01-11T09:43:35;0.30;74.20
484;DHT22;228;48.922;12.198;2024-01-11T09:46:05;0.40;74.70
484;DHT22;228;48.922;12.198;2024-01-11T09:48:37;0.80;73.20
484;DHT22;228;48.922;12.198;2024-01-11T09:51:18;0.70;73.40
484;DHT22;228;48.922;12.198;2024-01-11T09:53:46;0.90;72.60
484;DHT22;228;48.922;12.198;2024-01-11T09:56:13;0.90;72.80
484;DHT22;228;48.922;12.198;2024-01-11T09:58:46;0.30;73.30
484;DHT22;228;48.922;12.198;2024-01-11T10:01:16;-0.20;75.90
484;DHT22;228;48.922;12.198;2024-01-11T10:03:44;-0.10;75.60
484;DHT22;228;48.922;12.198;2024-01-11T10:06:15;0.00;75.20
484;DHT22;228;48.922;12.198;2024-01-11T10:08:43;0.10;76.10
484;DHT22;228;48.922;12.198;2024-01-11T10:11:11;0.70;75.90
484;DHT22;228;48.922;12.198;2024-01-11T10:13:37;1.40;72.90
484;DHT22;228;48.922;12.198;2024-01-11T10:16:09;1.50;70.10
484;DHT22;228;48.922;12.198;2024-01-11T10:18:36;1.70;70.60
484;DHT22;228;48.922;12.198;2024-01-11T10:21:04;1.50;69.10
484;DHT22;228;48.922;12.198;2024-01-11T10:23:33;1.50;70.60
484;DHT22;228;48.922;12.198;2024-01-11T10:26:00;1.50;69.00
484;DHT22;228;48.922;12.198;2024-01-11T10:28:27;1.50;69.50
484;DHT22;228;48.922;12.198;2024-01-11T10:30:54;1.70;69.20
484;DHT22;228;48.922;12.198;2024-01-11T10:33:22;1.80;69.10
484;DHT22;228;48.922;12.198;2024-01-11T10:35:49;2.00;68.50
484;DHT22;228;48.922;12.198;2024-01-11T10:38:16;1.90;67.60
484;DHT22;228;48.922;12.198;2024-01-11T10:40:44;1.10;70.00
484;DHT22;228;48.922;12.198;2024-01-11T10:43:11;0.80;71.70
484;DHT22;228;48.922;12.198;2024-01-11T10:45:41;1.10;71.90
484;DHT22;228;48.922;12.198;2024-01-11T10:48:14;1.00;72.00
484;DHT22;228;48.922;12.198;2024-01-11T10:50:43;1.20;72.60
484;DHT22;228;48.922;12.198;2024-01-11T10:53:25;1.80;70.00
484;DHT22;228;48.922;12.198;2024-01-11T10:56:03;1.30;70.70
484;DHT22;228;48.922;12.198;2024-01-11T10:58:31;1.60;69.10
484;DHT22;228;48.922;12.198;2024-01-11T11:01:01;1.30;70.40
484;DHT22;228;48.922;12.198;2024-01-11T11:03:31;1.60;69.10
484;DHT22;228;48.922;12.198;2024-01-11T11:06:01;1.50;69.00
484;DHT22;228;48.922;12.198;2024-01-11T11:08:49;1.90;69.30
484;DHT22;228;48.922;12.198;2024-01-11T11:11:17;0.80;70.40
484;DHT22;228;48.922;12.198;2024-01-11T11:13:47;1.20;71.80
484;DHT22;228;48.922;12.198;2024-01-11T11:16:17;1.40;70.80
484;DHT22;228;48.922;12.198;2024-01-11T11:18:43;1.70;69.20
484;DHT22;228;48.922;12.198;2024-01-11T11:21:10;1.70;70.10
484;DHT22;228;48.922;12.198;2024-01-11T11:23:37;1.90;69.00
484;DHT22;228;48.922;12.198;2024-01-11T11:26:06;1.80;68.10
484;DHT22;228;48.922;12.198;2024-01-11T11:28:35;2.40;66.50
484;DHT22;228;48.922;12.198;2024-01-11T11:31:02;3.10;63.30
484;DHT22;228;48.922;12.198;2024-01-11T11:33:29;3.90;60.80
484;DHT22;228;48.922;12.198;2024-01-11T11:35:59;4.80;57.60
484;DHT22;228;48.922;12.198;2024-01-11T11:38:27;5.20;54.80
484;DHT22;228;48.922;12.198;2024-01-11T11:40:56;6.20;52.30
484;DHT22;228;48.922;12.198;2024-01-11T11:43:23;7.20;51.00
484;DHT22;228;48.922;12.198;2024-01-11T11:45:51;8.20;47.70
484;DHT22;228;48.922;12.198;2024-01-11T11:51:11;8.40;45.00
484;DHT22;228;48.922;12.198;2024-01-11T11:53:40;8.00;44.50
484;DHT22;228;48.922;12.198;2024-01-11T11:56:07;7.70;44.70
484;DHT22;228;48.922;12.198;2024-01-11T11:58:38;8.40;44.50
484;DHT22;228;48.922;12.198;2024-01-11T12:01:08;10.10;42.00
484;DHT22;228;48.922;12.198;2024-01-11T12:03:37;11.40;38.70
484;DHT22;228;48.922;12.198;2024-01-11T12:06:08;12.50;36.50
484;DHT22;228;48.922;12.198;2024-01-11T12:08:42;13.30;33.80
484;DHT22;228;48.922;12.198;2024-01-11T12:11:08;12.30;33.20
484;DHT22;228;48.922;12.198;2024-01-11T12:13:35;12.30;33.60
484;DHT22;228;48.922;12.198;2024-01-11T12:16:01;12.70;34.00
484;DHT22;228;48.922;12.198;2024-01-11T12:18:28;13.10;32.60
484;DHT22;228;48.922;12.198;2024-01-11T12:20:54;13.10;31.20
484;DHT22;228;48.922;12.198;2024-01-11T12:23:20;12.10;32.10
484;DHT22;228;48.922;12.198;2024-01-11T12:25:46;12.40;32.60
484;DHT22;228;48.922;12.198;2024-01-11T12:28:13;12.80;32.20
484;DHT22;228;48.922;12.198;2024-01-11T12:30:39;12.90;32.00
484;DHT22;228;48.922;12.198;2024-01-11T12:33:05;13.60;31.90
484;DHT22;228;48.922;12.198;2024-01-11T12:35:32;13.40;30.90
484;DHT22;228;48.922;12.198;2024-01-11T12:38:03;13.10;30.40
484;DHT22;228;48.922;12.198;2024-01-11T12:40:38;12.80;32.20
484;DHT22;228;48.922;12.198;2024-01-11T12:43:04;13.80;31.50
484;DHT22;228;48.922;12.198;2024-01-11T12:45:32;14.80;29.90
484;DHT22;228;48.922;12.198;2024-01-11T12:47:59;15.40;29.10
484;DHT22;228;48.922;12.198;2024-01-11T12:50:26;15.50;28.70
484;DHT22;228;48.922;12.198;2024-01-11T12:53:12;15.60;28.00
484;DHT22;228;48.922;12.198;2024-01-11T12:55:48;16.10;28.30
484;DHT22;228;48.922;12.198;2024-01-11T12:58:20;16.50;27.70
484;DHT22;228;48.922;12.198;2024-01-11T13:00:51;15.70;27.70
484;DHT22;228;48.922;12.198;2024-01-11T13:03:18;14.40;28.20
484;DHT22;228;48.922;12.198;2024-01-11T13:05:46;13.60;29.10
484;DHT22;228;48.922;12.198;2024-01-11T13:08:12;13.80;30.00
484;DHT22;228;48.922;12.198;2024-01-11T13:10:38;13.30;30.60
484;DHT22;228;48.922;12.198;2024-01-11T13:13:05;13.70;30.50
484;DHT22;228;48.922;12.198;2024-01-11T13:15:34;14.60;29.30
484;DHT22;228;48.922;12.198;2024-01-11T13:18:01;15.10;28.20
484;DHT22;228;48.922;12.198;2024-01-11T13:20:28;15.80;27.90
484;DHT22;228;48.922;12.198;2024-01-11T13:25:47;15.30;27.90
484;DHT22;228;48.922;12.198;2024-01-11T13:28:15;15.30;27.70
484;DHT22;228;48.922;12.198;2024-01-11T13:30:42;16.00;27.50
484;DHT22;228;48.922;12.198;2024-01-11T13:33:09;15.70;27.00
484;DHT22;228;48.922;12.198;2024-01-11T13:35:40;14.90;27.80
484;DHT22;228;48.922;12.198;2024-01-11T13:38:08;14.30;28.50
484;DHT22;228;48.922;12.198;2024-01-11T13:40:35;12.70;29.70
484;DHT22;228;48.922;12.198;2024-01-11T13:43:01;11.00;31.80
484;DHT22;228;48.922;12.198;2024-01-11T13:45:28;9.30;36.30
484;DHT22;228;48.922;12.198;2024-01-11T13:47:55;10.20;35.70
484;DHT22;228;48.922;12.198;2024-01-11T13:50:22;10.80;34.20
484;DHT22;228;48.922;12.198;2024-01-11T13:52:52;11.40;33.40
484;DHT22;228;48.922;12.198;2024-01-11T13:55:18;11.50;33.00
484;DHT22;228;48.922;12.198;2024-01-11T13:57:47;11.50;32.50
484;DHT22;228;48.922;12.198;2024-01-11T14:00:14;11.10;33.30
484;DHT22;228;48.922;12.198;2024-01-11T14:02:40;11.20;33.30
484;DHT22;228;48.922;12.198;2024-01-11T14:05:07;10.80;34.30
484;DHT22;228;48.922;12.198;2024-01-11T14:07:38;11.10;34.40
484;DHT22;228;48.922;12.198;2024-01-11T14:10:06;11.70;33.60
484;DHT22;228;48.922;12.198;2024-01-11T14:12:36;12.20;32.30
484;DHT22;228;48.922;12.198;2024-01-11T14:15:04;10.90;33.40
484;DHT22;228;48.922;12.198;2024-01-11T14:17:32;10.10;35.60
484;DHT22;228;48.922;12.198;2024-01-11T14:19:59;9.90;37.30
484;DHT22;228;48.922;12.198;2024-01-11T14:22:26;10.30;36.20
484;DHT22;228;48.922;12.198;2024-01-11T14:24:52;10.80;35.00
484;DHT22;228;48.922;12.198;2024-01-11T14:27:20;10.50;34.80
484;DHT22;228;48.922;12.198;2024-01-11T14:29:47;9.90;37.10
484;DHT22;228;48.922;12.198;2024-01-11T14:32:14;10.30;36.00
484;DHT22;228;48.922;12.198;2024-01-11T14:34:43;10.30;35.80
484;DHT22;228;48.922;12.198;2024-01-11T14:37:11;10.20;35.90
484;DHT22;228;48.922;12.198;2024-01-11T14:39:38;9.90;37.20
484;DHT22;228;48.922;12.198;2024-01-11T14:42:04;9.80;37.00
484;DHT22;228;48.922;12.198;2024-01-11T14:44:30;9.60;37.60
484;DHT22;228;48.922;12.198;2024-01-11T14:46:56;8.80;38.90
484;DHT22;228;48.922;12.198;2024-01-11T14:49:23;7.30;41.20
484;DHT22;228;48.922;12.198;2024-01-11T14:51:50;5.20;45.90
484;DHT22;228;48.922;12.198;2024-01-11T14:54:16;3.90;50.40
484;DHT22;228;48.922;12.198;2024-01-11T14:56:44;3.50;53.40
484;DHT22;228;48.922;12.198;2024-01-11T14:59:10;3.40;54.20
484;DHT22;228;48.922;12.198;2024-01-11T15:01:36;3.30;54.90
484;DHT22;228;48.922;12.198;2024-01-11T15:04:02;3.00;55.90
484;DHT22;228;48.922;12.198;2024-01-11T15:06:28;2.80;57.10
484;DHT22;228;48.922;12.198;2024-01-11T15:08:54;3.00;57.20
484;DHT22;228;48.922;12.198;2024-01-11T15:11:20;2.90;57.30
484;DHT22;228;48.922;12.198;2024-01-11T15:13:46;2.50;58.10
484;DHT22;228;48.922;12.198;2024-01-11T15:16:12;2.50;59.00
484;DHT22;228;48.922;12.198;2024-01-11T15:18:38;2.60;59.30
484;DHT22;228;48.922;12.198;2024-01-11T15:21:04;2.50;59.50
484;DHT22;228;48.922;12.198;2024-01-11T15:23:30;2.40;60.30
484;DHT22;228;48.922;12.198;2024-01-11T15:25:58;2.50;60.50
484;DHT22;228;48.922;12.198;2024-01-11T15:28:24;2.60;60.30
484;DHT22;228;48.922;12.198;2024-01-11T15:30:50;2.40;60.70
484;DHT22;228;48.922;12.198;2024-01-11T15:33:16;2.20;62.00
484;DHT22;228;48.922;12.198;2024-01-11T15:35:42;2.10;62.50
484;DHT22;228;48.922;12.198;2024-01-11T15:38:08;2.00;63.30
484;DHT22;228;48.922;12.198;2024-01-11T15:40:34;1.90;63.70
484;DHT22;228;48.922;12.198;2024-01-11T15:43:02;2.10;63.60
484;DHT22;228;48.922;12.198;2024-01-11T15:45:32;2.20;63.20
484;DHT22;228;48.922;12.198;2024-01-11T15:47:58;2.10;63.50
484;DHT22;228;48.922;12.198;2024-01-11T15:50:25;2.10;63.70
484;DHT22;228;48.922;12.198;2024-01-11T15:52:51;2.00;63.80
484;DHT22;228;48.922;12.198;2024-01-11T15:55:17;1.90;64.20
484;DHT22;228;48.922;12.198;2024-01-11T15:57:46;1.90;64.50
484;DHT22;228;48.922;12.198;2024-01-11T16:00:13;1.50;65.50
484;DHT22;228;48.922;12.198;2024-01-11T16:02:39;1.20;67.10
484;DHT22;228;48.922;12.198;2024-01-11T16:05:06;1.40;67.70
484;DHT22;228;48.922;12.198;2024-01-11T16:07:33;1.60;67.40
484;DHT22;228;48.922;12.198;2024-01-11T16:10:00;1.80;66.50
484;DHT22;228;48.922;12.198;2024-01-11T16:12:26;1.70;66.50
484;DHT22;228;48.922;12.198;2024-01-11T16:14:52;1.60;67.10
484;DHT22;228;48.922;12.198;2024-01-11T16:17:22;1.50;67.70
484;DHT22;228;48.922;12.198;2024-01-11T16:19:48;1.40;68.40
484;DHT22;228;48.922;12.198;2024-01-11T16:22:15;1.50;68.20
484;DHT22;228;48.922;12.198;2024-01-11T16:24:41;1.40;68.20
484;DHT22;228;48.922;12.198;2024-01-11T16:27:07;1.30;68.30
484;DHT22;228;48.922;12.198;2024-01-11T16:29:34;1.20;68.80
484;DHT22;228;48.922;12.198;2024-01-11T16:32:00;1.00;70.40
484;DHT22;228;48.922;12.198;2024-01-11T16:34:26;0.80;71.90
484;DHT22;228;48.922;12.198;2024-01-11T16:36:53;1.00;71.70
484;DHT22;228;48.922;12.198;2024-01-11T16:39:19;1.00;71.40
484;DHT22;228;48.922;12.198;2024-01-11T16:41:45;0.90;72.30
484;DHT22;228;48.922;12.198;2024-01-11T16:44:13;0.80;72.90
484;DHT22;228;48.922;12.198;2024-01-11T16:46:39;0.60;74.30
484;DHT22;228;48.922;12.198;2024-01-11T16:49:05;0.50;74.70
484;DHT22;228;48.922;12.198;2024-01-11T18:16:06;0.30;84.90
484;DHT22;228;48.922;12.198;2024-01-11T18:19:37;0.20;86.10
484;DHT22;228;48.922;12.198;2024-01-11T19:28:42;1.10;87.60
484;DHT22;228;48.922;12.198;2024-01-11T19:31:11;1.10;87.50
484;DHT22;228;48.922;12.198;2024-01-11T19:59:57;1.40;84.70
484;DHT22;228;48.922;12.198;2024-01-11T20:16:49;1.60;84.40
484;DHT22;228;48.922;12.198;2024-01-11T20:22:44;1.50;85.10
484;DHT22;228;48.922;12.198;2024-01-11T20:25:11;1.60;84.00
484;DHT22;228;48.922;12.198;2024-01-11T20:27:37;1.50;85.10
484;DHT22;228;48.922;12.198;2024-01-11T20:30:03;1.60;84.50
484;DHT22;228;48.922;12.198;2024-01-11T20:32:31;1.70;84.80
484;DHT22;228;48.922;12.198;2024-01-11T20:38:26;1.40;85.30
484;DHT22;228;48.922;12.198;2024-01-11T20:54:44;1.70;85.20
484;DHT22;228;48.922;12.198;2024-01-11T20:57:10;1.80;84.60
